Latest Coastal Weather Observations for Parndana

IDS60701

Issued at 12:41 pm CST Tuesday 23 May 2017 (issued every 10 minutes, with the page automatically refreshed every 10 minutes)

About coastal observations | Map of coastal stations | Coastal observations for SA | Marine services | Other Formats
Station Details ID: 022843 Name: PARNDANA CFS AWS Lat: -35.79 Lon: 137.25 Height: 165.0 m
Data from the previous 72 hours. | See also: Recent months at Parndana
Date/Time
CST
Temp
°C
Wind Pressure Rain since
9am
mm
Weather Cloud Vis
km
Sea
Height
m
Swell
Dir  Spd
kts
Gust
kts
hPa Trend Height
m
Period
s
Dir
23/12:30pm 15.4 NW 18 26 - - 0.8 - - - - - - -
23/12:00pm 15.3 NW 16 22 - - 0.8 Recent precip. - - - - - -
23/11:30am 15.1 NW 14 21 - - 0.8 - - - - - - -
23/11:00am 14.3 NNW 11 19 - - 0.2 - - - - - - -
23/10:30am 13.3 NNW 9 12 - - 0.2 - - - - - - -
23/10:00am 12.8 NW 12 18 - - 0.2 - - - - - - -
23/09:30am 12.6 WNW 12 18 - - 0.2 - - - - - - -
23/09:00am 13.5 NW 11 18 - - 4.0 Rain - - - - - -
23/08:30am 13.2 NNW 7 10 - - 3.4 - - - - - - -
23/08:00am 11.8 N 6 8 - - 3.4 - - - - - - -
23/07:30am 11.3 NNW 7 8 - - 3.4 - - - - - - -
23/07:00am 11.2 NNW 6 8 - - 3.4 - - - - - - -
23/06:30am 9.3 NW 6 7 - - 3.4 - - - - - - -
23/06:00am 9.2 NW 5 5 - - 3.4 - - - - - - -
23/05:30am 8.8 NNW 5 6 - - 3.4 - - - - - - -
23/05:00am 8.7 N 4 5 - - 3.4 - - - - - - -
23/04:30am 8.1 NNW 5 5 - - 3.4 - - - - - - -
23/04:00am 8.9 NW 5 5 - - 3.2 - - - - - - -
23/03:30am 8.9 NW 5 6 - - 3.2 - - - - - - -
23/03:00am 9.4 NW 7 7 - - 3.2 - - - - - - -
23/02:30am 8.5 WNW 4 5 - - 3.2 - - - - - - -
23/02:00am 8.9 WNW 6 7 - - 3.2 - - - - - - -
23/01:30am 9.4 WNW 5 6 - - 3.2 - - - - - - -
23/01:00am 9.0 W 5 6 - - 3.2 - - - - - - -
23/12:30am 8.8 W 6 7 - - 3.2 - - - - - - -
23/12:00am 9.3 WNW 6 7 - - 3.2 - - - - - - -
 
Date/Time
CST
Temp
°C
Wind Pressure Rain since
9am
mm
Weather Cloud Vis
km
Sea
Height
m
Swell
Dir  Spd
kts
Gust
kts
hPa Trend Height
m
Period
s
Dir
22/11:30pm 9.3 WNW 6 6 - - 3.2 - - - - - - -
22/11:00pm 10.2 WNW 6 7 - - 3.2 - - - - - - -
22/10:30pm 10.0 W 6 7 - - 3.2 - - - - - - -
22/10:00pm 10.7 WNW 6 7 - - 3.2 - - - - - - -
22/09:30pm 11.1 W 7 8 - - 3.2 - - - - - - -
22/09:00pm 12.0 WNW 6 7 - - 3.2 Recent precip. - - - - - -
22/08:30pm 12.1 W 6 8 - - 3.0 - - - - - - -
22/08:00pm 13.1 W 6 7 - - 3.0 - - - - - - -
22/07:30pm 14.1 WNW 9 14 - - 3.0 - - - - - - -
22/07:00pm 14.1 NW 5 7 - - 0.4 - - - - - - -
22/06:30pm 14.5 NW 6 8 - - 0.4 - - - - - - -
22/06:00pm 14.8 NW 8 11 - - 0.4 - - - - - - -
22/05:30pm 15.3 WNW 11 15 - - 0.4 - - - - - - -
22/05:00pm 15.5 NW 11 15 - - 0.4 - - - - - - -
22/04:30pm 15.8 NW 7 12 - - 0.2 - - - - - - -
22/04:00pm 16.6 NW 11 18 - - 0.0 - - - - - - -
22/03:30pm 17.7 NW 14 19 - - 0.0 - - - - - - -
22/03:00pm 18.1 NW 16 25 - - 0.0 - - - - - - -
22/02:58pm 18.1 NW 15 25 - - 0.0 - - - - - - -
22/02:30pm 17.9 NNW 16 23 - - 0.0 - - - - - - -
22/02:00pm 18.5 NNW 17 25 - - 0.0 - - - - - - -
22/01:30pm 18.4 NNW 17 27 - - 0.0 - - - - - - -
22/01:11pm 17.4 N 18 31 - - 0.0 - - - - - - -
22/01:00pm 17.8 N 17 25 - - 0.0 - - - - - - -
22/12:37pm 17.7 N 21 31 - - 0.0 - - - - - - -
22/12:30pm 18.0 N 21 31 - - 0.0 - - - - - - -
22/12:00pm 17.7 N 18 30 - - 0.0 - - - - - - -
22/11:30am 17.4 N 17 23 - - 0.0 - - - - - - -
22/11:05am 17.7 N 16 26 - - 0.0 - - - - - - -
22/11:00am 17.7 N 16 22 - - 0.0 - - - - - - -
22/10:30am 17.7 N 17 24 - - 0.0 - - - - - - -
22/10:00am 17.4 NNW 11 20 - - 0.0 - - - - - - -
22/09:30am 15.7 NNE 9 15 - - 0.0 - - - - - - -
22/09:00am 15.7 N 10 14 - - 0.2 Recent precip. - - - - - -
22/08:30am 15.1 N 10 15 - - 0.0 - - - - - - -
22/08:00am 14.9 N 7 11 - - 0.0 - - - - - - -
22/07:30am 15.2 N 10 17 - - 0.0 - - - - - - -
22/07:00am 15.7 N 11 19 - - 0.0 - - - - - - -
22/06:30am 14.6 N 10 14 - - 0.0 - - - - - - -
22/06:00am 13.8 NNE 9 11 - - 0.0 - - - - - - -
22/05:30am 13.5 NNE 8 10 - - 0.0 - - - - - - -
22/05:00am 13.6 NNE 8 11 - - 0.0 - - - - - - -
22/04:30am 13.5 N 8 11 - - 0.0 - - - - - - -
22/04:00am 14.0 NNE 9 12 - - 0.0 - - - - - - -
22/03:30am 13.3 NE 7 9 - - 0.0 - - - - - - -
22/03:00am 14.0 N 6 9 - - 0.0 - - - - - - -
22/02:30am 14.6 N 6 8 - - 0.0 - - - - - - -
22/02:00am 14.9 N 7 9 - - 0.0 - - - - - - -
22/01:30am 15.6 N 9 12 - - 0.0 - - - - - - -
22/01:00am 15.5 N 9 13 - - 0.0 - - - - - - -
22/12:30am 15.8 N 10 15 - - 0.0 - - - - - - -
22/12:00am 15.8 N 10 16 - - 0.0 - - - - - - -
 
Date/Time
CST
Temp
°C
Wind Pressure Rain since
9am
mm
Weather Cloud Vis
km
Sea
Height
m
Swell
Dir  Spd
kts
Gust
kts
hPa Trend Height
m
Period
s
Dir
21/11:30pm 15.4 N 10 15 - - 0.0 - - - - - - -
21/11:00pm 14.9 N 9 14 - - 0.0 - - - - - - -
21/10:30pm 13.5 N 6 8 - - 0.0 - - - - - - -
21/10:00pm 14.6 N 8 10 - - 0.0 - - - - - - -
21/09:30pm 14.5 N 8 11 - - 0.0 - - - - - - -
21/09:00pm 13.3 N 7 8 - - 0.0 - - - - - - -
21/08:30pm 13.0 N 6 7 - - 0.0 - - - - - - -
21/08:00pm 13.0 N 6 7 - - 0.0 - - - - - - -
21/07:30pm 13.4 NNE 6 8 - - 0.0 - - - - - - -
21/07:00pm 13.8 NNE 7 8 - - 0.0 - - - - - - -
21/06:30pm 14.6 N 8 10 - - 0.0 - - - - - - -
21/06:00pm 15.2 N 9 13 - - 0.0 - - - - - - -
21/05:30pm 15.9 N 9 12 - - 0.0 - - - - - - -
21/05:00pm 17.3 - - - - - 0.0 - - - - - - -
21/04:30pm 18.1 - - - - - 0.0 - - - - - - -
21/04:00pm 18.8 - - - - - 0.0 - - - - - - -
21/03:30pm 19.3 - - - - - 0.0 - - - - - - -
21/03:00pm 19.3 N 12 18 - - 0.0 - - - - - - -
21/02:30pm 19.6 N 12 16 - - 0.0 - - - - - - -
21/02:00pm 19.4 N 13 17 - - 0.0 - - - - - - -
21/01:30pm 19.4 N 12 16 - - 0.0 - - - - - - -
21/01:00pm 19.3 N 12 17 - - 0.0 - - - - - - -
21/12:30pm 19.0 NNW 12 18 - - 0.0 - - - - - - -
21/12:00pm 18.4 NNW 13 19 - - 0.0 - - - - - - -
21/11:30am 18.1 NNW 13 17 - - 0.0 - - - - - - -
21/11:00am 17.9 NNW 12 17 - - 0.0 - - - - - - -
21/10:30am 16.9 NNW 9 14 - - 0.0 - - - - - - -
21/10:00am 16.2 N 9 13 - - 0.0 - - - - - - -
21/09:30am 16.5 N 10 13 - - 0.0 - - - - - - -
21/09:00am 15.5 N 8 10 - - 0.2 - - - - - - -
21/08:30am 14.2 N 7 9 - - 0.2 - - - - - - -
21/08:00am 12.7 N 5 7 - - 0.2 - - - - - - -
21/07:30am 12.2 N 7 8 - - 0.2 - - - - - - -
21/07:00am 11.3 N 6 8 - - 0.2 - - - - - - -
21/06:30am 11.6 N 6 7 - - 0.2 - - - - - - -
21/06:00am 12.0 N 6 8 - - 0.2 - - - - - - -
21/05:30am 11.7 N 6 7 - - 0.2 - - - - - - -
21/05:00am 10.7 NNE 6 7 - - 0.2 - - - - - - -
21/04:30am 12.4 NNE 5 6 - - 0.2 - - - - - - -
21/04:00am 13.0 NNE 4 5 - - 0.2 - - - - - - -
21/03:30am 13.3 NNE 4 4 - - 0.2 - - - - - - -
21/03:00am 13.1 NNE 3 3 - - 0.2 - - - - - - -
21/02:30am 13.0 NE 4 5 - - 0.2 - - - - - - -
21/02:00am 13.3 NE 4 4 - - 0.2 - - - - - - -
21/01:30am 12.9 NNE 4 5 - - 0.2 - - - - - - -
21/01:00am 12.7 NNE 4 5 - - 0.2 - - - - - - -
21/12:30am 12.5 N 5 6 - - 0.2 - - - - - - -
21/12:00am 12.6 NNE 4 5 - - 0.2 - - - - - - -
 
Date/Time
CST
Temp
°C
Wind Pressure Rain since
9am
mm
Weather Cloud Vis
km
Sea
Height
m
Swell
Dir  Spd
kts
Gust
kts
hPa Trend Height
m
Period
s
Dir
20/11:30pm 13.0 NNE 4 5 - - 0.2 - - - - - - -
20/11:00pm 13.8 N 6 8 - - 0.2 - - - - - - -
20/10:30pm 13.8 N 5 7 - - 0.2 - - - - - - -
20/10:00pm 13.6 N 5 7 - - 0.2 - - - - - - -
20/09:30pm 13.7 N 7 9 - - 0.2 - - - - - - -
20/09:00pm 13.5 N 5 8 - - 0.2 - - - - - - -
20/08:30pm 14.1 N 7 9 - - 0.2 - - - - - - -
20/08:00pm 14.0 N 5 7 - - 0.2 - - - - - - -
20/07:30pm 14.6 NNW 6 8 - - 0.2 - - - - - - -
20/07:00pm 14.6 NNW 5 6 - - 0.2 - - - - - - -
20/06:30pm 14.9 NNW 7 10 - - 0.2 - - - - - - -
20/06:00pm 14.9 NNW 6 8 - - 0.2 - - - - - - -
20/05:30pm 15.1 NNW 6 9 - - 0.2 - - - - - - -
20/05:00pm 15.4 NNW 7 10 - - 0.2 - - - - - - -
20/04:30pm 15.6 NNW 9 15 - - 0.2 - - - - - - -
20/04:00pm 15.6 NNW 9 14 - - 0.2 - - - - - - -
20/03:30pm 16.0 NNW 12 16 - - 0.2 - - - - - - -
20/03:00pm 16.0 NNW 9 16 - - 0.2 Recent precip. - - - - - -
20/02:30pm 15.7 NW 10 15 - - 0.0 - - - - - - -
20/02:00pm 15.9 NNW 11 14 - - 0.0 - - - - - - -
20/01:30pm 16.2 NNW 11 18 - - 0.0 - - - - - - -
20/01:00pm 15.9 NNW 13 19 - - 0.0 - - - - - - -

Other Formats:

Comma delimited format used in spreadsheet applications
http://www.bom.gov.au/fwo/IDS60701/IDS60701.94807.axf

JavaScript Object Notation format (JSON) in row-major order
http://www.bom.gov.au/fwo/IDS60701/IDS60701.94807.json